Time;durP1;ratioP1;P1;durP2;ratioP2;P2;SDS_P1;SDS_P2;PMS_P1;PMS_P2;Temp;Humidity;BMP_temperature;BMP_pressure;BME280_temperature;BME280_humidity;BME280_pressure;Samples;Min_cycle;Max_cycle;Signal;HPM_P1;HPM_P2
2022/03/30 04:02:15;;;;;;;31.97;25.10;;;11.90;99.90;;;;;;5118410;23;20487;-63
2022/03/30 04:04:43;;;;;;;26.90;24.00;;;11.90;99.90;;;;;;4957004;28;20452;-63
2022/03/30 04:07:11;;;;;;;28.97;23.70;;;12.00;99.90;;;;;;4956445;28;20503;-63
2022/03/30 04:09:37;;;;;;;29.33;22.70;;;11.90;99.90;;;;;;4956830;28;20456;-64
2022/03/30 04:12:05;;;;;;;32.60;26.50;;;11.90;99.90;;;;;;4956537;28;20491;-63
2022/03/30 04:14:31;;;;;;;38.60;24.50;;;12.00;99.90;;;;;;4956767;28;20460;-63
2022/03/30 04:16:58;;;;;;;35.00;24.57;;;11.90;99.90;;;;;;4956765;28;20514;-63
2022/03/30 04:19:27;;;;;;;26.93;24.03;;;11.90;99.90;;;;;;4956865;28;20467;-64
2022/03/30 04:21:53;;;;;;;29.17;24.37;;;11.90;99.90;;;;;;4956873;28;20471;-64
2022/03/30 04:24:21;;;;;;;32.23;24.37;;;11.90;99.90;;;;;;4957014;28;20459;-64
2022/03/30 04:26:48;;;;;;;32.10;24.07;;;11.90;99.90;;;;;;4956839;28;20476;-63
2022/03/30 04:29:14;;;;;;;29.60;25.50;;;11.90;99.90;;;;;;4956932;28;20815;-64
2022/03/30 04:31:41;;;;;;;34.03;25.80;;;11.80;99.90;;;;;;4956597;28;20538;-63
2022/03/30 04:34:08;;;;;;;32.80;27.07;;;11.80;99.90;;;;;;4956770;28;20463;-64
2022/03/30 04:36:36;;;;;;;31.60;27.10;;;11.80;99.90;;;;;;4956510;28;20460;-63
2022/03/30 04:39:03;;;;;;;28.40;25.37;;;11.80;99.90;;;;;;4956841;28;20460;-65
2022/03/30 04:41:30;;;;;;;30.57;27.57;;;11.80;99.90;;;;;;4956487;28;20479;-64
2022/03/30 04:43:57;;;;;;;31.77;27.87;;;11.70;99.90;;;;;;4956899;28;20955;-64
2022/03/30 04:46:23;;;;;;;33.77;26.90;;;11.60;99.90;;;;;;4956365;28;20466;-64
2022/03/30 04:48:50;;;;;;;30.50;26.27;;;11.60;99.90;;;;;;4956938;28;20463;-64
2022/03/30 04:51:17;;;;;;;37.53;28.40;;;11.60;99.90;;;;;;4957364;28;20550;-66
2022/03/30 04:53:45;;;;;;;32.87;27.00;;;11.50;99.90;;;;;;4957258;28;20455;-64
2022/03/30 04:56:12;;;;;;;35.23;28.60;;;11.50;99.90;;;;;;4956674;28;20459;-64
2022/03/30 04:58:39;;;;;;;37.73;29.50;;;11.50;99.90;;;;;;4956372;28;20574;-66
2022/03/30 05:01:05;;;;;;;30.20;25.30;;;11.50;99.90;;;;;;4956444;28;20547;-65
2022/03/30 05:03:32;;;;;;;39.20;27.13;;;11.40;99.90;;;;;;4955764;28;20939;-64
2022/03/30 05:05:59;;;;;;;39.00;27.47;;;11.40;99.90;;;;;;4957569;28;20943;-65
2022/03/30 05:08:26;;;;;;;32.83;25.63;;;11.30;99.90;;;;;;4957410;28;20444;-65
2022/03/30 05:10:54;;;;;;;33.73;24.50;;;11.30;99.90;;;;;;4955638;28;20534;-65
2022/03/30 05:13:20;;;;;;;35.10;24.30;;;11.20;99.90;;;;;;4956145;28;20463;-65
2022/03/30 05:15:47;;;;;;;38.30;23.70;;;11.20;99.90;;;;;;4956055;28;20819;-65
2022/03/30 05:18:14;;;;;;;28.87;23.43;;;11.10;99.90;;;;;;4957015;28;20463;-65
2022/03/30 05:20:43;;;;;;;27.50;23.30;;;11.10;99.90;;;;;;4956278;28;20515;-65
2022/03/30 05:23:10;;;;;;;32.07;24.17;;;11.00;99.90;;;;;;4956198;28;20493;-65
2022/03/30 05:25:37;;;;;;;27.23;20.97;;;10.90;99.90;;;;;;4955904;28;20879;-64
2022/03/30 05:28:05;;;;;;;33.10;21.90;;;10.90;99.90;;;;;;4956228;28;20462;-64
2022/03/30 05:30:32;;;;;;;29.73;20.90;;;10.80;99.90;;;;;;4955713;28;20486;-65
2022/03/30 05:33:00;;;;;;;24.27;20.43;;;10.70;99.90;;;;;;4955192;28;20483;-64
2022/03/30 05:35:27;;;;;;;28.60;21.00;;;10.70;99.90;;;;;;4955847;28;20558;-65
2022/03/30 05:37:54;;;;;;;27.57;20.40;;;10.60;99.90;;;;;;4957174;28;20462;-65
2022/03/30 05:40:21;;;;;;;28.93;21.10;;;10.60;99.90;;;;;;4955598;28;20456;-64
2022/03/30 05:42:48;;;;;;;41.00;22.40;;;10.50;99.90;;;;;;4955542;28;20511;-63
2022/03/30 05:45:16;;;;;;;37.67;22.23;;;10.50;99.90;;;;;;4956007;28;21057;-65
2022/03/30 05:47:43;;;;;;;27.40;20.90;;;10.50;99.90;;;;;;4956701;28;20487;-66
2022/03/30 05:50:10;;;;;;;32.60;22.53;;;10.40;99.90;;;;;;4955513;28;20962;-64
2022/03/30 05:52:38;;;;;;;27.00;21.20;;;10.40;99.90;;;;;;4955418;28;20480;-66
2022/03/30 05:55:08;;;;;;;31.73;20.87;;;10.40;99.90;;;;;;4955617;28;20510;-66
2022/03/30 05:57:35;;;;;;;25.70;21.67;;;10.40;99.90;;;;;;4956564;28;20460;-65
2022/03/30 06:00:02;;;;;;;33.63;22.90;;;10.40;99.90;;;;;;4958762;28;20459;-64
2022/03/30 06:02:30;;;;;;;33.23;25.07;;;10.30;99.90;;;;;;4958536;28;20522;-66
2022/03/30 06:04:57;;;;;;;39.60;22.47;;;10.30;99.90;;;;;;4958897;28;20857;-65
2022/03/30 06:07:24;;;;;;;34.80;23.73;;;10.30;99.90;;;;;;4959049;28;20495;-66
2022/03/30 06:09:51;;;;;;;38.80;24.60;;;10.30;99.90;;;;;;4958997;28;20487;-65
2022/03/30 06:12:18;;;;;;;31.90;23.10;;;10.30;99.90;;;;;;4958940;28;20488;-65
2022/03/30 06:14:45;;;;;;;38.37;23.73;;;10.30;99.90;;;;;;4959037;28;20512;-66
2022/03/30 06:17:12;;;;;;;39.63;25.50;;;10.30;99.90;;;;;;4958845;28;20459;-65
2022/03/30 06:19:40;;;;;;;42.63;24.30;;;10.30;99.90;;;;;;4959011;28;20460;-65
2022/03/30 06:22:09;;;;;;;37.40;25.80;;;10.30;99.90;;;;;;4958690;28;20480;-66
2022/03/30 06:24:36;;;;;;;29.50;23.40;;;10.30;99.90;;;;;;4958305;28;20550;-66
2022/03/30 06:27:04;;;;;;;39.23;24.20;;;10.40;99.90;;;;;;4958047;28;20544;-65
2022/03/30 06:29:31;;;;;;;36.57;25.17;;;10.40;99.90;;;;;;4958322;28;20488;-65
2022/03/30 06:31:58;;;;;;;36.30;24.93;;;10.40;99.90;;;;;;4958565;28;20479;-65
2022/03/30 06:34:25;;;;;;;32.50;24.00;;;10.40;99.90;;;;;;4958110;28;20456;-65
2022/03/30 06:36:53;;;;;;;33.23;25.60;;;10.40;99.90;;;;;;4958176;28;20498;-66
2022/03/30 06:39:20;;;;;;;36.83;25.90;;;10.40;99.90;;;;;;4963173;28;20480;-65
2022/03/30 06:41:48;;;;;;;34.70;25.23;;;10.30;99.90;;;;;;4961067;28;20476;-65
2022/03/30 06:44:15;;;;;;;35.17;28.00;;;10.30;99.90;;;;;;4967339;28;21056;-66
2022/03/30 06:46:42;;;;;;;40.40;28.10;;;10.20;99.90;;;;;;4963432;28;20479;-66
2022/03/30 06:49:09;;;;;;;40.87;27.30;;;10.20;99.90;;;;;;4963618;28;20456;-65
2022/03/30 06:51:37;;;;;;;34.03;26.40;;;10.20;99.90;;;;;;4959053;28;20900;-66
2022/03/30 06:54:06;;;;;;;38.27;29.10;;;10.20;99.90;;;;;;4958670;28;20491;-65
2022/03/30 06:56:33;;;;;;;39.10;27.80;;;10.20;99.90;;;;;;4958072;28;20459;-64
2022/03/30 06:59:00;;;;;;;49.87;29.77;;;10.20;99.90;;;;;;4957701;28;20461;-65
2022/03/30 07:01:27;;;;;;;48.47;29.50;;;10.20;99.90;;;;;;4957422;28;20491;-65
2022/03/30 07:03:54;;;;;;;36.20;26.93;;;10.10;99.90;;;;;;4957653;28;20455;-65
2022/03/30 07:06:21;;;;;;;43.43;28.47;;;10.10;99.90;;;;;;4957934;28;20463;-64
2022/03/30 07:11:34;;;;;;;46.87;31.80;;;10.10;99.90;;;;;;4957530;29;20957;-64
2022/03/30 07:14:00;;;;;;;39.77;31.27;;;10.10;99.90;;;;;;4957294;28;20510;-65
2022/03/30 07:16:27;;;;;;;38.20;30.40;;;10.10;99.90;;;;;;4957208;28;20824;-66
2022/03/30 07:18:55;;;;;;;39.87;29.77;;;10.10;99.90;;;;;;4957579;28;20506;-65
2022/03/30 07:21:22;;;;;;;36.83;27.30;;;10.10;99.90;;;;;;4957190;28;20498;-65
2022/03/30 07:23:48;;;;;;;41.33;29.83;;;10.10;99.90;;;;;;4956844;28;20944;-65
2022/03/30 07:26:15;;;;;;;41.63;29.07;;;10.20;99.90;;;;;;4957058;28;20507;-65
2022/03/30 07:28:43;;;;;;;39.77;29.40;;;10.20;99.90;;;;;;4957183;28;20841;-65
2022/03/30 07:31:10;;;;;;;39.73;28.80;;;10.30;99.90;;;;;;4956922;28;20484;-64
2022/03/30 07:33:37;;;;;;;35.13;26.17;;;10.30;99.90;;;;;;4957249;28;20475;-65
2022/03/30 07:36:04;;;;;;;37.87;25.17;;;10.30;99.90;;;;;;4956963;28;20504;-66
2022/03/30 07:38:31;;;;;;;33.37;25.33;;;10.30;99.90;;;;;;4956808;28;20459;-66
2022/03/30 07:41:00;;;;;;;38.93;26.97;;;10.50;99.90;;;;;;4956479;28;20539;-65
2022/03/30 07:43:27;;;;;;;39.37;25.37;;;10.60;99.90;;;;;;4957257;28;20463;-66
2022/03/30 07:45:55;;;;;;;31.70;25.00;;;10.80;99.90;;;;;;4956777;28;20601;-64
2022/03/30 07:48:22;;;;;;;35.33;27.27;;;10.90;99.90;;;;;;4964032;28;20466;-65
2022/03/30 07:50:49;;;;;;;36.27;27.77;;;11.00;99.90;;;;;;4963191;28;20523;-65
2022/03/30 07:53:15;;;;;;;38.40;30.60;;;11.00;99.90;;;;;;4956591;28;20519;-65
2022/03/30 07:55:42;;;;;;;37.93;29.37;;;11.00;99.90;;;;;;4956594;28;20444;-65
2022/03/30 07:58:09;;;;;;;38.90;30.57;;;11.00;99.90;;;;;;4956653;28;20460;-65
2022/03/30 08:00:36;;;;;;;40.17;29.30;;;11.00;99.90;;;;;;4956396;28;20491;-65
2022/03/30 08:03:04;;;;;;;32.20;26.40;;;11.00;99.90;;;;;;4956455;28;20455;-66
2022/03/30 08:05:31;;;;;;;39.57;25.37;;;11.00;99.90;;;;;;4956251;28;20455;-65
2022/03/30 08:07:58;;;;;;;34.73;25.07;;;11.00;99.90;;;;;;4956349;28;20463;-65
2022/03/30 08:10:28;;;;;;;38.47;29.13;;;11.00;99.90;;;;;;4956278;28;20455;-65
2022/03/30 08:12:54;;;;;;;49.70;30.23;;;10.80;99.90;;;;;;4956375;28;20492;-65
2022/03/30 08:15:22;;;;;;;40.23;30.03;;;10.70;99.90;;;;;;4956202;28;20856;-65
2022/03/30 08:17:50;;;;;;;39.87;30.47;;;10.60;99.90;;;;;;4956382;28;20455;-66
2022/03/30 08:22:59;;;;;;;42.97;30.40;;;10.60;99.90;;;;;;4955663;29;20523;-65
2022/03/30 08:25:26;;;;;;;41.20;30.63;;;10.50;99.90;;;;;;4956897;28;20474;-65
2022/03/30 08:27:52;;;;;;;48.20;31.93;;;10.60;99.90;;;;;;4955607;28;20982;-64
2022/03/30 08:30:19;;;;;;;49.03;31.20;;;10.70;99.90;;;;;;4955895;28;20451;-65
2022/03/30 08:32:46;;;;;;;43.00;33.07;;;10.80;99.90;;;;;;4956640;28;20557;-65
2022/03/30 08:35:12;;;;;;;41.13;30.43;;;10.90;99.90;;;;;;4956083;28;20483;-65
2022/03/30 08:37:41;;;;;;;39.87;31.47;;;11.00;99.90;;;;;;4956065;28;20456;-65
2022/03/30 08:40:08;;;;;;;41.20;33.00;;;11.00;99.90;;;;;;4956034;28;20456;-66
2022/03/30 08:42:36;;;;;;;124.53;72.77;;;11.00;99.90;;;;;;4957494;28;20476;-66
2022/03/30 08:45:03;;;;;;;83.30;52.30;;;11.00;99.90;;;;;;4957821;28;20484;-65
2022/03/30 08:47:31;;;;;;;84.63;50.57;;;11.00;99.90;;;;;;4958779;28;20483;-66
2022/03/30 08:49:58;;;;;;;69.07;45.30;;;11.10;99.90;;;;;;4956971;28;20455;-66
2022/03/30 08:52:25;;;;;;;72.53;46.47;;;11.10;99.90;;;;;;4956080;28;20483;-65
2022/03/30 08:54:53;;;;;;;68.40;45.43;;;11.10;99.90;;;;;;4956322;28;20462;-66
2022/03/30 08:57:20;;;;;;;74.43;45.77;;;11.00;99.90;;;;;;4956027;28;20974;-65
2022/03/30 08:59:58;;;;;;;68.80;43.63;;;11.00;99.90;;;;;;4956471;28;20463;-66
2022/03/30 09:02:33;;;;;;;65.00;43.80;;;11.10;99.90;;;;;;4955941;28;20522;-66
2022/03/30 09:05:12;;;;;;;63.50;43.33;;;11.10;99.90;;;;;;4956863;28;20534;-66
2022/03/30 09:07:39;;;;;;;72.20;44.40;;;11.20;99.90;;;;;;4956782;28;20440;-65
2022/03/30 09:10:13;;;;;;;59.17;44.90;;;11.20;99.90;;;;;;4955516;28;20460;-65
2022/03/30 09:12:40;;;;;;;63.63;44.47;;;11.20;99.90;;;;;;4955754;28;20464;-66
2022/03/30 09:15:08;;;;;;;63.93;45.80;;;11.20;99.90;;;;;;4955511;28;20460;-65
2022/03/30 09:17:38;;;;;;;69.17;45.07;;;11.20;99.90;;;;;;4956131;28;20894;-65
2022/03/30 09:20:04;;;;;;;71.90;48.53;;;11.20;99.90;;;;;;4956004;28;20488;-66
2022/03/30 09:22:33;;;;;;;68.77;45.90;;;11.20;99.90;;;;;;4955595;28;20483;-66
2022/03/30 09:25:02;;;;;;;63.20;41.70;;;11.30;99.90;;;;;;4956335;28;20459;-66
2022/03/30 09:27:30;;;;;;;57.40;43.10;;;11.20;99.90;;;;;;4955330;28;20456;-66
2022/03/30 09:29:57;;;;;;;66.63;44.20;;;11.30;99.90;;;;;;4955148;28;20944;-66
2022/03/30 09:32:24;;;;;;;62.70;42.30;;;11.30;99.90;;;;;;4956401;28;20832;-65
2022/03/30 09:34:52;;;;;;;57.97;39.67;;;11.30;99.90;;;;;;4959367;28;20460;-65
2022/03/30 09:37:19;;;;;;;70.77;44.20;;;11.30;99.90;;;;;;4959292;28;20459;-66
2022/03/30 09:39:48;;;;;;;55.73;37.70;;;11.30;99.90;;;;;;4959242;28;20452;-65
2022/03/30 09:42:16;;;;;;;56.10;36.83;;;11.40;99.90;;;;;;4959239;28;20527;-65
2022/03/30 09:44:49;;;;;;;57.40;37.97;;;11.40;99.90;;;;;;4959279;28;20511;-65
2022/03/30 09:47:18;;;;;;;54.80;37.50;;;11.30;99.90;;;;;;4959099;28;20444;-66
2022/03/30 09:49:46;;;;;;;51.00;36.70;;;11.40;99.90;;;;;;4959076;28;20806;-65
2022/03/30 09:52:16;;;;;;;47.33;31.00;;;11.40;99.90;;;;;;4958977;28;20487;-66
2022/03/30 09:54:47;;;;;;;42.93;30.50;;;11.40;99.90;;;;;;4959026;28;20847;-66
2022/03/30 09:57:15;;;;;;;39.73;27.97;;;11.40;99.90;;;;;;4958886;28;20494;-65
2022/03/30 10:00:04;;;;;;;39.83;26.70;;;11.30;99.90;;;;;;4958864;28;20447;-65
2022/03/30 10:02:33;;;;;;;46.73;24.60;;;11.30;99.90;;;;;;4958330;28;20994;-66
2022/03/30 10:05:00;;;;;;;41.70;23.90;;;11.30;99.90;;;;;;4958785;28;20515;-66
2022/03/30 10:07:28;;;;;;;35.07;22.87;;;11.30;99.90;;;;;;4958742;28;20464;-65
2022/03/30 10:09:56;;;;;;;39.33;25.10;;;11.30;99.90;;;;;;4958885;28;20822;-66
2022/03/30 10:12:24;;;;;;;35.27;24.70;;;11.30;99.90;;;;;;4958385;28;20479;-66
2022/03/30 10:14:51;;;;;;;34.17;22.37;;;11.40;99.90;;;;;;4958737;28;20483;-66
2022/03/30 10:17:20;;;;;;;35.47;21.97;;;11.50;99.90;;;;;;4959280;28;20462;-65
2022/03/30 10:19:49;;;;;;;32.20;23.00;;;11.60;99.90;;;;;;4958878;28;20455;-66
2022/03/30 10:22:28;;;;;;;33.30;21.50;;;11.60;99.90;;;;;;4960398;28;20479;-66
2022/03/30 10:25:11;;;;;;;37.30;19.70;;;11.70;99.90;;;;;;4971314;28;20436;-66
2022/03/30 10:27:48;;;;;;;35.90;21.27;;;11.70;99.90;;;;;;4970757;28;20440;-65
2022/03/30 10:30:22;;;;;;;29.97;20.90;;;11.80;99.90;;;;;;4971223;28;20444;-65
2022/03/30 10:32:55;;;;;;;35.30;21.80;;;11.80;99.90;;;;;;4959897;28;20811;-65
2022/03/30 10:35:22;;;;;;;29.17;19.40;;;11.80;99.90;;;;;;4958604;28;20476;-64
2022/03/30 10:37:59;;;;;;;23.23;14.33;;;11.80;99.90;;;;;;4965556;28;20452;-64
2022/03/30 10:40:27;;;;;;;36.97;17.60;;;11.80;99.90;;;;;;4969551;28;20490;-66
2022/03/30 10:42:59;;;;;;;30.33;14.63;;;11.80;99.90;;;;;;4958626;28;20467;-65
2022/03/30 10:45:27;;;;;;;23.77;14.23;;;11.80;99.90;;;;;;4960031;29;20488;-66
2022/03/30 10:48:17;;;;;;;19.30;12.63;;;11.90;99.90;;;;;;4958743;28;20462;-65
2022/03/30 10:50:46;;;;;;;18.90;11.93;;;11.90;99.90;;;;;;4958135;28;20476;-65
2022/03/30 10:53:39;;;;;;;21.30;11.30;;;12.00;99.90;;;;;;4958838;28;20511;-65
2022/03/30 10:56:32;;;;;;;16.63;11.53;;;12.10;99.90;;;;;;4958396;28;20447;-65
2022/03/30 10:59:10;;;;;;;47.97;27.10;;;12.20;99.90;;;;;;4958224;28;20456;-65
2022/03/30 11:01:39;;;;;;;20.77;13.30;;;12.20;99.90;;;;;;4958430;28;20564;-65
2022/03/30 11:04:16;;;;;;;18.57;11.93;;;12.20;99.90;;;;;;4958130;28;20456;-65
2022/03/30 11:06:45;;;;;;;19.70;11.27;;;12.20;99.90;;;;;;4958686;28;20440;-66
2022/03/30 11:09:22;;;;;;;23.27;13.20;;;12.20;99.90;;;;;;4958060;28;20491;-64
2022/03/30 11:11:58;;;;;;;19.43;12.73;;;12.20;99.90;;;;;;4957926;28;20515;-64
2022/03/30 11:14:31;;;;;;;18.13;12.10;;;12.30;99.90;;;;;;4957963;28;20978;-65
2022/03/30 11:17:00;;;;;;;25.83;11.70;;;12.30;99.90;;;;;;4957935;28;20444;-65
2022/03/30 11:19:32;;;;;;;18.10;10.10;;;12.40;99.90;;;;;;4958070;28;20455;-67
2022/03/30 11:22:11;;;;;;;20.77;9.37;;;12.40;99.90;;;;;;4966901;28;20479;-65
2022/03/30 11:24:38;;;;;;;16.03;10.60;;;12.40;99.90;;;;;;4967430;28;20452;-65
2022/03/30 11:27:21;;;;;;;14.80;9.27;;;12.40;99.90;;;;;;4958587;28;20492;-65
2022/03/30 11:30:09;;;;;;;19.00;9.70;;;12.40;99.90;;;;;;4963586;28;20463;-65
2022/03/30 11:32:59;;;;;;;15.83;9.43;;;12.40;99.90;;;;;;4957891;28;20476;-66
2022/03/30 11:35:30;;;;;;;16.77;9.97;;;12.40;99.90;;;;;;4958677;28;20499;-65
2022/03/30 11:38:08;;;;;;;17.47;10.17;;;12.50;99.90;;;;;;4959128;28;20444;-66
2022/03/30 11:40:40;;;;;;;19.07;11.10;;;12.50;99.90;;;;;;4962641;28;20471;-65
2022/03/30 11:43:07;;;;;;;17.17;10.77;;;12.50;99.90;;;;;;4961931;28;20475;-67
2022/03/30 11:45:35;;;;;;;14.73;10.57;;;12.60;99.90;;;;;;4962775;28;20465;-65
2022/03/30 11:48:04;;;;;;;15.27;9.77;;;12.60;99.90;;;;;;4959926;28;20447;-65
2022/03/30 11:50:34;;;;;;;13.67;9.77;;;12.60;99.90;;;;;;4959640;28;20474;-64
2022/03/30 11:53:02;;;;;;;18.03;10.80;;;12.60;99.90;;;;;;4959855;28;20460;-65
2022/03/30 11:55:30;;;;;;;15.30;10.40;;;12.60;99.90;;;;;;4958722;28;20455;-66
2022/03/30 11:58:00;;;;;;;15.23;9.60;;;12.50;99.90;;;;;;4959184;28;20463;-65
2022/03/30 12:00:29;;;;;;;16.73;10.40;;;12.60;99.90;;;;;;4957575;28;20463;-65
2022/03/30 12:02:57;;;;;;;14.90;10.27;;;12.60;99.90;;;;;;4957443;28;20499;-65
2022/03/30 12:05:25;;;;;;;18.10;10.30;;;12.60;99.90;;;;;;4957708;28;20452;-65
2022/03/30 12:07:54;;;;;;;15.20;10.67;;;12.70;99.90;;;;;;4957161;28;20471;-66
2022/03/30 12:10:27;;;;;;;18.00;11.67;;;12.70;99.90;;;;;;4958033;28;20452;-65
2022/03/30 12:12:54;;;;;;;17.50;9.77;;;12.70;99.90;;;;;;4957630;28;20483;-67
2022/03/30 12:15:21;;;;;;;23.37;11.23;;;12.70;99.90;;;;;;4957307;28;20558;-64
2022/03/30 12:17:52;;;;;;;18.83;10.90;;;12.80;99.90;;;;;;4957502;28;20463;-65
2022/03/30 12:20:25;;;;;;;20.83;12.53;;;12.90;99.90;;;;;;4957467;28;20456;-65
2022/03/30 12:23:01;;;;;;;20.00;11.93;;;12.90;99.90;;;;;;4957006;28;20452;-66
2022/03/30 12:25:30;;;;;;;15.90;12.00;;;13.00;99.90;;;;;;4957569;28;20436;-65
2022/03/30 12:27:58;;;;;;;15.57;11.63;;;13.00;99.90;;;;;;4957162;28;20908;-65
2022/03/30 12:30:25;;;;;;;13.47;10.43;;;13.10;99.90;;;;;;4957167;28;20459;-65
2022/03/30 12:32:52;;;;;;;17.43;12.57;;;13.10;99.90;;;;;;4956914;28;20456;-66
2022/03/30 12:35:20;;;;;;;23.70;12.43;;;13.10;99.90;;;;;;4956873;28;20471;-65
2022/03/30 12:37:49;;;;;;;13.20;11.23;;;13.20;99.90;;;;;;4957177;28;20546;-66
2022/03/30 12:40:21;;;;;;;13.67;12.33;;;13.10;99.90;;;;;;4956985;28;20466;-63
2022/03/30 12:42:49;;;;;;;13.00;10.70;;;13.00;99.90;;;;;;4956165;28;20476;-65
2022/03/30 12:45:18;;;;;;;11.67;10.60;;;12.80;99.90;;;;;;4956393;28;20911;-65
2022/03/30 12:47:52;;;;;;;11.77;10.87;;;12.60;99.90;;;;;;4956435;28;20466;-65
2022/03/30 12:50:23;;;;;;;12.20;11.10;;;12.60;99.90;;;;;;4956590;28;20447;-65
2022/03/30 12:52:52;;;;;;;11.77;10.77;;;12.40;99.90;;;;;;4956452;28;20444;-65
2022/03/30 12:55:27;;;;;;;11.93;11.03;;;12.30;99.90;;;;;;4956056;28;20483;-64
2022/03/30 12:57:59;;;;;;;12.27;11.27;;;12.10;99.90;;;;;;4956458;28;20444;-64
2022/03/30 13:00:31;;;;;;;9.30;8.50;;;12.10;99.90;;;;;;4956641;28;20460;-65
2022/03/30 13:03:24;;;;;;;9.00;8.30;;;12.10;99.90;;;;;;4957342;28;20805;-64
2022/03/30 13:06:06;;;;;;;9.50;8.70;;;12.10;99.90;;;;;;4942982;28;20470;-64
2022/03/30 13:08:33;;;;;;;8.10;7.47;;;12.20;99.90;;;;;;4961174;28;20454;-65
2022/03/30 13:11:02;;;;;;;7.53;6.80;;;12.30;99.90;;;;;;4960819;28;20974;-64
2022/03/30 13:13:31;;;;;;;8.00;7.30;;;12.30;99.90;;;;;;4960293;28;20459;-65
2022/03/30 13:16:07;;;;;;;7.60;7.00;;;12.40;99.90;;;;;;4960542;28;20455;-65
2022/03/30 13:18:34;;;;;;;8.53;7.73;;;12.30;99.90;;;;;;4960632;28;20543;-64
2022/03/30 13:21:07;;;;;;;9.17;8.37;;;12.40;99.90;;;;;;4960042;28;20515;-65
2022/03/30 13:23:36;;;;;;;10.23;9.43;;;12.40;99.90;;;;;;4960647;28;20447;-65
2022/03/30 13:26:05;;;;;;;9.63;8.83;;;12.20;99.90;;;;;;4960848;28;20491;-64
2022/03/30 13:28:31;;;;;;;10.37;9.50;;;12.10;99.90;;;;;;4961472;28;20456;-66
2022/03/30 13:31:00;;;;;;;10.90;10.00;;;11.90;99.90;;;;;;4961058;28;20830;-64
2022/03/30 13:33:26;;;;;;;11.50;10.60;;;11.80;99.90;;;;;;4962602;28;20527;-65
2022/03/30 13:35:54;;;;;;;12.13;11.00;;;11.60;99.90;;;;;;4962159;28;20474;-64
2022/03/30 13:38:23;;;;;;;14.33;13.00;;;11.50;99.90;;;;;;4961199;28;20459;-65
2022/03/30 13:40:51;;;;;;;15.07;13.20;;;11.30;99.90;;;;;;4961036;28;20530;-64
2022/03/30 13:43:19;;;;;;;15.07;13.60;;;11.30;99.90;;;;;;4962464;28;20966;-65
2022/03/30 13:45:45;;;;;;;15.67;14.37;;;11.20;99.90;;;;;;4962470;28;20510;-65
2022/03/30 13:48:12;;;;;;;13.50;12.30;;;11.20;99.90;;;;;;4962702;28;20471;-64
2022/03/30 13:50:39;;;;;;;16.07;14.67;;;11.10;99.90;;;;;;4963574;28;20503;-65
2022/03/30 13:53:06;;;;;;;16.13;14.63;;;11.20;99.90;;;;;;4965165;28;20471;-66
2022/03/30 13:55:34;;;;;;;18.13;16.23;;;11.20;99.90;;;;;;4966828;28;20929;-65
2022/03/30 13:58:01;;;;;;;16.17;14.67;;;11.30;99.90;;;;;;4966128;28;21027;-65
2022/03/30 14:00:29;;;;;;;15.40;14.03;;;11.30;99.90;;;;;;4960336;28;20467;-64
2022/03/30 14:02:57;;;;;;;16.60;15.03;;;11.20;99.90;;;;;;4958715;28;20452;-65
2022/03/30 14:05:25;;;;;;;16.37;14.70;;;11.20;99.90;;;;;;4958837;28;20998;-65
2022/03/30 14:07:52;;;;;;;16.63;15.23;;;11.30;99.90;;;;;;4959283;28;20511;-64
2022/03/30 14:10:21;;;;;;;16.40;14.80;;;11.30;99.90;;;;;;4958861;28;20456;-66
2022/03/30 14:12:48;;;;;;;16.63;15.07;;;11.40;99.90;;;;;;4959001;28;20518;-65
2022/03/30 14:15:15;;;;;;;16.90;15.27;;;11.40;99.90;;;;;;4958829;28;20530;-65
2022/03/30 14:17:43;;;;;;;15.57;14.23;;;11.50;99.90;;;;;;4958121;28;20463;-64
2022/03/30 14:20:11;;;;;;;17.77;15.90;;;11.50;99.90;;;;;;4958762;28;20514;-65
2022/03/30 14:22:38;;;;;;;17.80;16.00;;;11.50;99.90;;;;;;4959383;28;20902;-65
2022/03/30 14:25:06;;;;;;;16.70;15.13;;;11.40;99.90;;;;;;4958993;28;20459;-64
2022/03/30 14:27:33;;;;;;;16.97;15.47;;;11.50;99.90;;;;;;4960445;28;20796;-65
2022/03/30 14:30:00;;;;;;;17.80;15.93;;;11.40;99.90;;;;;;4958732;28;20440;-65
2022/03/30 14:32:27;;;;;;;18.40;15.20;;;11.40;99.90;;;;;;4958741;28;20491;-65
2022/03/30 14:34:55;;;;;;;15.97;14.47;;;11.40;99.90;;;;;;4959355;28;20575;-65
2022/03/30 14:37:21;;;;;;;16.37;14.77;;;11.40;99.90;;;;;;4958952;28;20467;-65
2022/03/30 14:39:49;;;;;;;15.23;13.83;;;11.50;99.90;;;;;;4958648;28;20463;-64
2022/03/30 14:42:15;;;;;;;15.10;13.60;;;11.50;99.90;;;;;;4958047;28;21006;-66
2022/03/30 14:44:42;;;;;;;15.40;14.00;;;11.50;99.90;;;;;;4958391;28;20465;-65
2022/03/30 14:47:09;;;;;;;18.43;16.63;;;11.50;99.90;;;;;;4958742;28;20467;-66
2022/03/30 14:49:36;;;;;;;16.77;15.03;;;11.60;99.90;;;;;;4959190;28;20482;-64
2022/03/30 14:52:05;;;;;;;18.07;16.33;;;11.60;99.90;;;;;;4958916;28;20483;-65
2022/03/30 14:54:32;;;;;;;18.17;16.27;;;11.60;99.90;;;;;;4958772;28;20971;-65
2022/03/30 14:56:59;;;;;;;18.63;16.67;;;11.50;99.90;;;;;;4959272;28;20945;-65
2022/03/30 14:59:26;;;;;;;19.03;17.13;;;11.50;99.90;;;;;;4969028;28;20459;-65
2022/03/30 15:01:53;;;;;;;21.73;15.97;;;11.60;99.90;;;;;;4967989;28;20487;-65
2022/03/30 15:04:19;;;;;;;17.57;15.77;;;11.70;99.90;;;;;;4969090;28;20487;-65
2022/03/30 15:06:46;;;;;;;18.67;16.67;;;11.70;99.90;;;;;;4968544;28;20447;-65
2022/03/30 15:09:14;;;;;;;17.33;15.63;;;11.80;99.90;;;;;;4963047;28;20459;-64
2022/03/30 15:11:41;;;;;;;19.10;17.10;;;11.80;99.90;;;;;;4959509;28;20486;-64
2022/03/30 15:14:08;;;;;;;19.10;16.80;;;12.00;99.90;;;;;;4959499;28;20455;-65
2022/03/30 15:16:35;;;;;;;17.97;16.10;;;12.10;99.90;;;;;;4959626;28;20951;-64
2022/03/30 15:19:02;;;;;;;17.70;15.90;;;12.10;99.90;;;;;;4959831;28;20458;-66
2022/03/30 15:21:29;;;;;;;18.53;16.53;;;12.10;99.90;;;;;;4960325;28;20472;-66
2022/03/30 15:23:56;;;;;;;17.70;16.00;;;12.10;99.90;;;;;;4960307;28;20935;-65
2022/03/30 15:26:25;;;;;;;18.23;16.27;;;12.00;99.90;;;;;;4957835;28;20510;-65
2022/03/30 15:28:52;;;;;;;17.83;15.97;;;12.00;99.90;;;;;;4957627;28;20463;-65
2022/03/30 15:31:20;;;;;;;22.10;18.17;;;12.10;99.90;;;;;;4957209;28;20471;-65
2022/03/30 15:33:46;;;;;;;16.70;15.10;;;12.00;99.90;;;;;;4958456;28;20451;-65
2022/03/30 15:36:16;;;;;;;18.83;16.87;;;12.00;99.90;;;;;;4957672;28;20488;-65
2022/03/30 15:38:44;;;;;;;16.83;14.17;;;12.00;99.90;;;;;;4957629;28;20460;-65
2022/03/30 15:41:11;;;;;;;19.77;15.60;;;12.00;99.90;;;;;;4957526;28;20562;-65
2022/03/30 15:43:39;;;;;;;16.93;15.20;;;12.00;99.90;;;;;;4958601;28;20463;-65
2022/03/30 15:46:06;;;;;;;17.23;15.43;;;12.00;99.90;;;;;;4957375;28;20463;-65
2022/03/30 15:48:32;;;;;;;16.40;14.70;;;12.00;99.90;;;;;;4957718;28;20866;-64
2022/03/30 15:50:59;;;;;;;17.13;15.33;;;12.00;99.90;;;;;;4958509;28;20488;-65
2022/03/30 15:53:28;;;;;;;18.03;16.23;;;12.00;99.90;;;;;;4958389;28;20487;-64
2022/03/30 15:55:55;;;;;;;19.50;17.60;;;11.90;99.90;;;;;;4958275;28;20479;-64
2022/03/30 15:58:26;;;;;;;20.47;18.30;;;11.80;99.90;;;;;;4959387;28;20460;-65
2022/03/30 16:00:55;;;;;;;22.73;20.33;;;11.70;99.90;;;;;;4958196;28;20491;-63
2022/03/30 16:03:22;;;;;;;25.47;22.70;;;11.70;99.90;;;;;;4961462;28;20452;-63
2022/03/30 16:05:50;;;;;;;25.10;22.50;;;11.60;99.90;;;;;;4965979;28;20952;-64
2022/03/30 16:13:45;;;;;;;24.52;21.83;;;11.40;99.90;;;;;;4958509;29;20852;-62
2022/03/30 16:16:14;;;;;;;26.57;23.77;;;11.40;99.90;;;;;;4958173;28;20227;-64
2022/03/30 16:18:41;;;;;;;27.80;24.07;;;11.50;99.90;;;;;;4958279;28;20791;-63
2022/03/30 16:21:08;;;;;;;26.70;23.53;;;11.50;99.90;;;;;;4957881;28;20483;-61
2022/03/30 16:23:34;;;;;;;22.57;20.23;;;11.60;99.90;;;;;;4957152;28;20463;-63
2022/03/30 16:26:02;;;;;;;24.33;21.73;;;11.70;99.90;;;;;;4956798;28;20463;-63
2022/03/30 16:28:32;;;;;;;24.40;21.77;;;11.70;99.90;;;;;;4956536;28;20936;-63
2022/03/30 16:30:59;;;;;;;25.67;22.90;;;11.80;99.90;;;;;;4956748;28;20483;-63
2022/03/30 16:33:28;;;;;;;27.07;23.73;;;11.70;99.90;;;;;;4957052;28;20483;-63
2022/03/30 16:35:55;;;;;;;27.60;21.90;;;11.70;99.90;;;;;;4956895;28;20528;-63
2022/03/30 16:38:21;;;;;;;24.73;22.07;;;11.70;99.90;;;;;;4956207;28;20818;-65
2022/03/30 16:40:48;;;;;;;25.27;22.67;;;11.70;99.90;;;;;;4956471;28;20495;-64
2022/03/30 16:43:15;;;;;;;27.27;22.20;;;11.60;99.90;;;;;;4957801;28;20847;-64
2022/03/30 16:45:42;;;;;;;25.67;21.77;;;11.50;99.90;;;;;;4957198;28;20451;-64
2022/03/30 16:48:09;;;;;;;24.33;21.67;;;11.40;99.90;;;;;;4956362;28;20863;-64